createdAt,value
2018-08-16T00:00:16.318Z,85.20
2018-08-16T00:00:48.843Z,85.20
2018-08-16T00:01:21.340Z,85.30
2018-08-16T00:01:54.655Z,85.20
2018-08-16T00:02:27.175Z,85.20
2018-08-16T00:02:59.694Z,85.30
2018-08-16T00:03:32.207Z,85.40
2018-08-16T00:04:04.748Z,85.20
2018-08-16T00:04:37.259Z,85.40
2018-08-16T00:05:09.759Z,85.30
2018-08-16T00:05:42.415Z,85.40
2018-08-16T00:06:14.921Z,85.40
2018-08-16T00:06:47.456Z,85.30
2018-08-16T00:07:19.959Z,85.30
2018-08-16T00:07:52.476Z,85.30
2018-08-16T00:08:25.020Z,85.50
2018-08-16T00:08:57.539Z,85.50
2018-08-16T00:09:30.490Z,85.00
2018-08-16T00:10:03.528Z,85.60
2018-08-16T00:10:37.128Z,85.70
2018-08-16T00:11:10.478Z,85.70
2018-08-16T00:11:43.111Z,85.60
2018-08-16T00:12:15.610Z,85.70
2018-08-16T00:12:48.123Z,85.60
2018-08-16T00:13:20.636Z,85.60
2018-08-16T00:13:53.901Z,85.70
2018-08-16T00:14:26.414Z,85.70
2018-08-16T00:14:58.923Z,85.80
2018-08-16T00:15:31.422Z,85.90
2018-08-16T00:16:03.930Z,85.90
2018-08-16T00:16:36.450Z,86.00
2018-08-16T00:17:09.723Z,86.00
2018-08-16T00:17:42.235Z,85.90
2018-08-16T00:18:14.887Z,86.00
2018-08-16T00:18:47.388Z,86.00
2018-08-16T00:19:19.885Z,85.80
2018-08-16T00:19:52.408Z,85.90
2018-08-16T00:20:24.921Z,85.80
2018-08-16T00:20:57.419Z,85.90
2018-08-16T00:21:30.035Z,85.90
2018-08-16T00:22:02.555Z,85.80
2018-08-16T00:22:35.063Z,85.90
2018-08-16T00:23:07.564Z,86.00
2018-08-16T00:23:40.065Z,86.10
2018-08-16T00:24:12.567Z,86.10
2018-08-16T00:24:45.061Z,86.10
2018-08-16T00:25:17.580Z,86.00
2018-08-16T00:25:50.095Z,86.10
2018-08-16T00:26:22.597Z,86.10
2018-08-16T00:26:55.126Z,86.10
2018-08-16T00:27:27.627Z,86.30
2018-08-16T00:28:00.574Z,86.20
2018-08-16T00:28:33.155Z,86.30
2018-08-16T00:29:05.658Z,86.30
2018-08-16T00:29:38.172Z,86.30
2018-08-16T00:30:10.682Z,86.40
2018-08-16T00:30:43.207Z,86.30
2018-08-16T00:31:16.397Z,86.40
2018-08-16T00:31:49.636Z,86.40
2018-08-16T00:32:22.923Z,86.40
2018-08-16T00:32:55.427Z,86.40
2018-08-16T00:33:27.922Z,86.30
2018-08-16T00:34:00.446Z,87.10
2018-08-16T00:34:33.755Z,86.40
2018-08-16T00:35:06.267Z,86.40
2018-08-16T00:35:38.767Z,86.40
2018-08-16T00:36:11.263Z,86.40
2018-08-16T00:36:44.535Z,86.60
2018-08-16T00:37:17.557Z,86.60
2018-08-16T00:37:50.772Z,86.70
2018-08-16T00:38:23.286Z,86.80
2018-08-16T00:38:56.547Z,86.60
2018-08-16T00:39:29.822Z,86.80
2018-08-16T00:40:02.309Z,86.80
2018-08-16T00:40:34.815Z,86.60
2018-08-16T00:41:07.328Z,86.80
2018-08-16T00:41:40.588Z,86.90
2018-08-16T00:42:13.095Z,86.90
2018-08-16T00:42:45.611Z,86.80
2018-08-16T00:43:18.111Z,86.80
2018-08-16T00:43:50.644Z,86.90
2018-08-16T00:44:23.891Z,86.90
2018-08-16T00:44:57.152Z,86.90
2018-08-16T00:45:29.684Z,86.80
2018-08-16T00:46:02.632Z,86.90
2018-08-16T00:46:35.761Z,87.00
2018-08-16T00:47:08.793Z,86.90
2018-08-16T00:47:41.821Z,87.00
2018-08-16T00:48:14.908Z,87.10
2018-08-16T00:48:47.949Z,87.10
2018-08-16T00:49:21.004Z,87.10
2018-08-16T00:49:54.811Z,87.20
2018-08-16T00:50:28.607Z,87.10
2018-08-16T00:51:01.649Z,87.10
2018-08-16T00:51:34.689Z,87.10
2018-08-16T00:52:08.373Z,87.20
2018-08-16T00:52:41.420Z,87.20
2018-08-16T00:53:14.471Z,87.10
2018-08-16T00:53:47.501Z,87.20
2018-08-16T00:54:20.528Z,87.20
2018-08-16T00:54:54.324Z,87.20
2018-08-16T00:55:27.353Z,87.20
2018-08-16T00:56:00.380Z,87.10
2018-08-16T00:56:34.191Z,87.20
2018-08-16T00:57:07.217Z,87.20
2018-08-16T00:57:40.273Z,87.40
2018-08-16T00:58:13.295Z,87.30
2018-08-16T00:58:47.096Z,87.50
2018-08-16T00:59:19.724Z,87.50
2018-08-16T00:59:53.449Z,87.60
2018-08-16T01:00:27.240Z,87.40
2018-08-16T01:01:00.291Z,87.40
2018-08-16T01:01:33.323Z,87.50
2018-08-16T01:02:06.348Z,87.50
2018-08-16T01:02:40.159Z,87.50
2018-08-16T01:03:13.953Z,87.50
2018-08-16T01:03:47.740Z,87.50
2018-08-16T01:04:21.520Z,87.60
2018-08-16T01:04:55.320Z,87.50
2018-08-16T01:05:29.117Z,87.60
2018-08-16T01:06:02.919Z,87.70
2018-08-16T01:06:35.947Z,87.70
2018-08-16T01:07:08.986Z,87.80
2018-08-16T01:07:42.040Z,87.80
2018-08-16T01:08:15.064Z,87.80
2018-08-16T01:08:48.099Z,87.80
2018-08-16T01:09:21.156Z,87.80
2018-08-16T01:09:54.232Z,87.80
2018-08-16T01:10:27.219Z,87.80
2018-08-16T01:11:00.251Z,87.80
2018-08-16T01:11:33.287Z,87.80
2018-08-16T01:12:06.315Z,87.80
2018-08-16T01:12:40.330Z,87.90
2018-08-16T01:13:13.387Z,87.90
2018-08-16T01:13:45.963Z,88.00
2018-08-16T01:14:18.480Z,87.90
2018-08-16T01:14:50.991Z,87.90
2018-08-16T01:15:23.495Z,87.90
2018-08-16T01:15:56.016Z,88.00
2018-08-16T01:16:28.512Z,87.90
2018-08-16T01:17:01.023Z,87.90
2018-08-16T01:17:33.534Z,88.80
2018-08-16T01:18:06.056Z,88.10
2018-08-16T01:18:38.579Z,88.10
2018-08-16T01:19:11.086Z,88.10
2018-08-16T01:19:43.588Z,88.00
2018-08-16T01:20:16.124Z,88.00
2018-08-16T01:20:48.678Z,88.10
2018-08-16T01:21:21.182Z,88.10
2018-08-16T01:21:53.810Z,88.10
2018-08-16T01:22:26.316Z,88.20
2018-08-16T01:22:58.935Z,88.20
2018-08-16T01:23:31.450Z,88.20
2018-08-16T01:24:04.727Z,88.20
2018-08-16T01:24:37.239Z,88.30
2018-08-16T01:25:09.793Z,88.30
2018-08-16T01:25:42.318Z,88.30
2018-08-16T01:26:16.341Z,88.30
2018-08-16T01:26:49.090Z,88.30
2018-08-16T01:27:21.589Z,88.30
2018-08-16T01:27:54.107Z,88.40
2018-08-16T01:28:26.608Z,88.40
2018-08-16T01:28:59.127Z,88.40
2018-08-16T01:29:31.647Z,88.50
2018-08-16T01:30:04.622Z,88.80
2018-08-16T01:30:37.655Z,88.40
2018-08-16T01:31:10.677Z,88.40
2018-08-16T01:31:43.863Z,88.20
2018-08-16T01:32:16.903Z,88.40
2018-08-16T01:32:49.963Z,89.40
2018-08-16T01:33:22.999Z,88.50
2018-08-16T01:33:56.071Z,88.70
2018-08-16T01:34:29.112Z,88.60
2018-08-16T01:35:02.149Z,88.60
2018-08-16T01:35:35.318Z,88.60
2018-08-16T01:36:08.312Z,88.60
2018-08-16T01:36:41.353Z,88.60
2018-08-16T01:37:14.379Z,88.70
2018-08-16T01:37:48.201Z,88.60
2018-08-16T01:38:21.232Z,88.70
2018-08-16T01:38:54.261Z,88.70
2018-08-16T01:39:27.280Z,88.80
2018-08-16T01:40:00.313Z,88.80
2018-08-16T01:40:33.336Z,88.90
2018-08-16T01:41:06.364Z,88.90
2018-08-16T01:41:40.164Z,88.90
2018-08-16T01:42:13.180Z,88.90
2018-08-16T01:42:46.988Z,89.00
2018-08-16T01:43:20.022Z,88.80
2018-08-16T01:43:53.044Z,88.90
2018-08-16T01:44:26.075Z,88.90
2018-08-16T01:44:59.111Z,89.00
2018-08-16T01:45:32.145Z,89.00
2018-08-16T01:46:05.987Z,89.00
2018-08-16T01:46:39.058Z,88.90
2018-08-16T01:47:12.107Z,89.00
2018-08-16T01:47:45.143Z,89.90
2018-08-16T01:48:18.183Z,88.90
2018-08-16T01:48:51.220Z,89.10
2018-08-16T01:49:24.279Z,89.20
2018-08-16T01:49:58.068Z,89.10
2018-08-16T01:50:31.096Z,88.90
2018-08-16T01:51:04.131Z,89.00
2018-08-16T01:51:37.180Z,88.90
2018-08-16T01:52:10.212Z,89.00
2018-08-16T01:52:43.232Z,89.00
2018-08-16T01:53:16.357Z,89.10
2018-08-16T01:53:49.385Z,89.00
2018-08-16T01:54:22.931Z,89.00
2018-08-16T01:54:55.968Z,89.00
2018-08-16T01:55:29.773Z,89.10
2018-08-16T01:56:02.807Z,89.10
2018-08-16T01:56:35.828Z,89.10
2018-08-16T01:57:08.883Z,89.20
2018-08-16T01:57:41.904Z,89.30
2018-08-16T01:58:14.936Z,89.20
2018-08-16T01:58:48.745Z,89.30
2018-08-16T01:59:21.796Z,89.30
2018-08-16T01:59:54.835Z,89.30
2018-08-16T02:00:29.391Z,89.40
2018-08-16T02:01:02.418Z,89.30
2018-08-16T02:01:36.228Z,89.40
2018-08-16T02:02:09.275Z,89.40
2018-08-16T02:02:42.319Z,89.40
2018-08-16T02:03:16.136Z,89.60
2018-08-16T02:03:49.186Z,89.60
2018-08-16T02:04:22.218Z,89.60
2018-08-16T02:04:56.021Z,89.60
2018-08-16T02:05:29.039Z,89.50
2018-08-16T02:06:02.077Z,89.60
2018-08-16T02:06:35.875Z,89.60
2018-08-16T02:07:09.704Z,89.50
2018-08-16T02:07:42.747Z,89.60
2018-08-16T02:08:15.806Z,89.70
2018-08-16T02:08:48.833Z,89.70
2018-08-16T02:09:21.881Z,89.70
2018-08-16T02:09:54.902Z,89.70
2018-08-16T02:10:27.926Z,89.60
2018-08-16T02:11:01.720Z,89.80
2018-08-16T02:11:34.751Z,89.80
2018-08-16T02:12:07.788Z,89.80
2018-08-16T02:12:40.831Z,89.70
2018-08-16T02:13:14.623Z,90.00
2018-08-16T02:13:48.408Z,90.00
2018-08-16T02:14:22.195Z,90.00
2018-08-16T02:14:55.225Z,89.90
2018-08-16T02:15:28.335Z,89.90
2018-08-16T02:16:01.343Z,89.90
2018-08-16T02:16:34.398Z,90.00
2018-08-16T02:17:07.445Z,90.00
2018-08-16T02:17:40.471Z,90.00
2018-08-16T02:18:13.511Z,90.00
2018-08-16T02:18:46.536Z,90.00
2018-08-16T02:19:19.612Z,90.00
2018-08-16T02:19:52.637Z,90.10
2018-08-16T02:20:25.676Z,90.00
2018-08-16T02:20:58.715Z,90.00
2018-08-16T02:21:32.516Z,90.00
2018-08-16T02:22:05.560Z,90.00
2018-08-16T02:22:38.589Z,90.00
2018-08-16T02:23:11.615Z,90.10
2018-08-16T02:23:45.416Z,90.00
2018-08-16T02:24:19.252Z,90.00
2018-08-16T02:24:52.276Z,90.10
2018-08-16T02:25:25.312Z,90.00
2018-08-16T02:25:58.343Z,90.00
2018-08-16T02:26:31.367Z,90.00
2018-08-16T02:27:04.423Z,90.00
2018-08-16T02:27:37.446Z,90.00
2018-08-16T02:28:11.236Z,90.10
2018-08-16T02:28:45.028Z,90.10
2018-08-16T02:29:18.822Z,90.00
2018-08-16T02:29:52.615Z,90.00
2018-08-16T02:30:26.416Z,90.00
2018-08-16T02:31:00.257Z,90.00
2018-08-16T02:31:33.281Z,90.00
2018-08-16T02:32:06.356Z,90.00
2018-08-16T02:32:40.152Z,90.00
2018-08-16T02:33:13.935Z,90.20
2018-08-16T02:33:47.787Z,90.10
2018-08-16T02:34:21.521Z,90.10
2018-08-16T02:34:55.309Z,90.10
2018-08-16T02:35:29.119Z,90.20
2018-08-16T02:36:02.144Z,90.20
2018-08-16T02:36:35.304Z,90.20
2018-08-16T02:37:08.332Z,90.20
2018-08-16T02:37:42.132Z,90.20
2018-08-16T02:38:15.923Z,90.20
2018-08-16T02:38:49.724Z,90.20
2018-08-16T02:39:22.760Z,90.20
2018-08-16T02:39:55.808Z,90.20
2018-08-16T02:40:28.847Z,90.20
2018-08-16T02:41:01.863Z,90.20
2018-08-16T02:41:34.897Z,90.60
2018-08-16T02:42:08.691Z,90.20
2018-08-16T02:42:41.715Z,90.20
2018-08-16T02:43:14.740Z,90.20
2018-08-16T02:43:47.792Z,90.30
2018-08-16T02:44:21.588Z,90.60
2018-08-16T02:44:55.384Z,90.20
2018-08-16T02:45:29.180Z,90.20
2018-08-16T02:46:02.992Z,90.30
2018-08-16T02:46:36.023Z,90.30
2018-08-16T02:47:09.043Z,90.30
2018-08-16T02:47:42.060Z,90.30
2018-08-16T02:48:15.080Z,90.30
2018-08-16T02:48:48.099Z,90.30
2018-08-16T02:49:21.132Z,90.30
2018-08-16T02:49:54.223Z,90.30
2018-08-16T02:50:27.269Z,90.30
2018-08-16T02:51:00.424Z,90.30
2018-08-16T02:51:33.328Z,90.30
2018-08-16T02:52:06.362Z,90.30
2018-08-16T02:52:39.408Z,90.30
2018-08-16T02:53:12.448Z,90.30
2018-08-16T02:53:46.228Z,90.30
2018-08-16T02:54:20.020Z,90.30
2018-08-16T02:54:53.803Z,90.30
2018-08-16T02:55:27.639Z,90.30
2018-08-16T02:56:00.808Z,90.30
2018-08-16T02:56:33.841Z,90.30
2018-08-16T02:57:07.090Z,90.30
2018-08-16T02:57:40.096Z,90.30
2018-08-16T02:58:13.895Z,90.40
2018-08-16T02:58:47.693Z,90.10
2018-08-16T02:59:21.488Z,90.40
2018-08-16T02:59:55.292Z,90.40
2018-08-16T03:00:28.329Z,90.40
2018-08-16T03:01:01.374Z,90.40
2018-08-16T03:01:34.404Z,90.30
2018-08-16T03:02:08.200Z,90.40
2018-08-16T03:02:42.007Z,90.40
2018-08-16T03:03:15.032Z,90.40
2018-08-16T03:03:48.056Z,90.40
2018-08-16T03:04:21.076Z,90.40
2018-08-16T03:04:54.129Z,90.30
2018-08-16T03:05:27.162Z,90.40
2018-08-16T03:06:00.229Z,90.40
2018-08-16T03:06:33.255Z,90.40
2018-08-16T03:07:06.440Z,90.40
2018-08-16T03:07:39.461Z,90.40
2018-08-16T03:08:12.500Z,90.50
2018-08-16T03:08:46.309Z,90.50
2018-08-16T03:09:19.333Z,90.50
2018-08-16T03:09:52.516Z,90.50
2018-08-16T03:10:25.539Z,90.50
2018-08-16T03:10:58.588Z,90.50
2018-08-16T03:11:31.617Z,90.50
2018-08-16T03:12:05.415Z,90.50
2018-08-16T03:12:38.450Z,90.50
2018-08-16T03:13:11.594Z,90.50
2018-08-16T03:13:44.616Z,90.50
2018-08-16T03:14:18.420Z,90.60
2018-08-16T03:14:52.208Z,90.60
2018-08-16T03:15:26.000Z,90.60
2018-08-16T03:15:59.803Z,90.60
2018-08-16T03:16:32.839Z,90.60
2018-08-16T03:17:05.889Z,90.60
2018-08-16T03:17:39.445Z,90.70
2018-08-16T03:18:12.441Z,90.60
2018-08-16T03:18:45.477Z,90.60
2018-08-16T03:19:18.509Z,90.70
2018-08-16T03:19:52.316Z,90.70
2018-08-16T03:20:25.336Z,90.70
2018-08-16T03:20:58.909Z,90.70
2018-08-16T03:21:32.695Z,90.60
2018-08-16T03:22:06.488Z,90.60
2018-08-16T03:22:40.276Z,90.60
2018-08-16T03:23:14.067Z,90.70
2018-08-16T03:23:47.859Z,90.60
2018-08-16T03:24:21.664Z,90.70
2018-08-16T03:24:55.456Z,90.70
2018-08-16T03:25:29.251Z,90.60
2018-08-16T03:26:03.071Z,90.70
2018-08-16T03:26:36.076Z,90.60
2018-08-16T03:27:09.128Z,90.70
2018-08-16T03:27:42.182Z,90.60
2018-08-16T03:28:16.201Z,90.60
2018-08-16T03:28:49.227Z,90.60
2018-08-16T03:29:22.345Z,90.70
2018-08-16T03:29:55.358Z,91.00
2018-08-16T03:30:28.389Z,90.70
2018-08-16T03:31:01.442Z,90.70
2018-08-16T03:31:35.232Z,90.70
2018-08-16T03:32:09.049Z,90.70
2018-08-16T03:32:42.064Z,90.70
2018-08-16T03:33:15.094Z,90.70
2018-08-16T03:33:48.116Z,90.60
2018-08-16T03:34:21.158Z,90.60
2018-08-16T03:34:54.184Z,90.70
2018-08-16T03:35:27.975Z,90.80
2018-08-16T03:36:01.793Z,90.70
2018-08-16T03:36:34.832Z,90.70
2018-08-16T03:37:07.868Z,90.70
2018-08-16T03:37:40.896Z,90.70
2018-08-16T03:38:15.651Z,90.80
2018-08-16T03:38:49.408Z,90.70
2018-08-16T03:39:23.216Z,90.80
2018-08-16T03:39:56.408Z,90.70
2018-08-16T03:40:29.452Z,90.80
2018-08-16T03:41:02.495Z,90.80
2018-08-16T03:41:35.555Z,90.80
2018-08-16T03:42:08.584Z,90.80
2018-08-16T03:42:41.620Z,90.80
2018-08-16T03:43:14.645Z,90.80
2018-08-16T03:43:48.219Z,90.90
2018-08-16T03:44:22.019Z,90.80
2018-08-16T03:44:55.044Z,90.80
2018-08-16T03:45:28.067Z,90.80
2018-08-16T03:46:01.108Z,90.80
2018-08-16T03:46:34.151Z,90.90
2018-08-16T03:47:07.171Z,90.80
2018-08-16T03:47:40.967Z,90.90
2018-08-16T03:48:14.052Z,90.90
2018-08-16T03:48:47.033Z,90.90
2018-08-16T03:49:20.048Z,90.90
2018-08-16T03:49:53.077Z,90.90
2018-08-16T03:50:26.107Z,90.90
2018-08-16T03:50:59.155Z,90.90
2018-08-16T03:51:32.216Z,90.90
2018-08-16T03:52:05.254Z,90.90
2018-08-16T03:52:39.056Z,91.20
2018-08-16T03:53:12.857Z,90.90
2018-08-16T03:53:46.661Z,90.90
2018-08-16T03:54:19.699Z,90.90
2018-08-16T03:54:52.715Z,90.90
2018-08-16T03:55:25.747Z,90.90
2018-08-16T03:55:58.784Z,90.90
2018-08-16T03:56:31.837Z,90.90
2018-08-16T03:57:04.899Z,90.90
2018-08-16T03:57:38.704Z,90.90
2018-08-16T03:58:11.745Z,90.90
2018-08-16T03:58:44.773Z,90.90
2018-08-16T03:59:17.933Z,90.90
2018-08-16T03:59:50.955Z,90.90
2018-08-16T04:00:23.987Z,90.90
2018-08-16T04:00:57.044Z,90.90
2018-08-16T04:01:30.095Z,91.00
2018-08-16T04:02:04.154Z,91.40
2018-08-16T04:02:37.308Z,91.00
2018-08-16T04:03:10.336Z,91.00
2018-08-16T04:03:43.364Z,91.00
2018-08-16T04:04:16.393Z,91.10
2018-08-16T04:04:49.428Z,91.00
2018-08-16T04:05:22.588Z,91.00
2018-08-16T04:05:55.613Z,91.00
2018-08-16T04:06:28.667Z,91.00
2018-08-16T04:07:02.617Z,91.00
2018-08-16T04:07:35.641Z,91.00
2018-08-16T04:08:08.663Z,91.00
2018-08-16T04:08:41.698Z,91.00
2018-08-16T04:09:14.736Z,91.00
2018-08-16T04:09:47.780Z,91.00
2018-08-16T04:10:21.574Z,91.00
2018-08-16T04:10:55.383Z,91.00
2018-08-16T04:11:28.592Z,91.00
2018-08-16T04:12:01.640Z,91.00
2018-08-16T04:12:34.732Z,91.00
2018-08-16T04:13:07.762Z,91.00
2018-08-16T04:13:40.776Z,91.10
2018-08-16T04:14:13.804Z,91.10
2018-08-16T04:14:47.595Z,91.00
2018-08-16T04:15:21.417Z,91.00
2018-08-16T04:15:54.602Z,91.10
2018-08-16T04:16:27.804Z,91.10
2018-08-16T04:17:00.833Z,91.10
2018-08-16T04:17:33.865Z,91.00
2018-08-16T04:18:06.882Z,91.10
2018-08-16T04:18:40.687Z,91.10
2018-08-16T04:19:13.708Z,91.10
2018-08-16T04:19:46.978Z,91.10
2018-08-16T04:20:20.829Z,91.10
2018-08-16T04:20:53.870Z,91.10
2018-08-16T04:21:26.927Z,91.20
2018-08-16T04:21:59.968Z,91.10
2018-08-16T04:22:33.012Z,91.20
2018-08-16T04:23:06.044Z,91.20
2018-08-16T04:23:39.126Z,91.20
2018-08-16T04:24:12.282Z,91.10
2018-08-16T04:24:45.452Z,91.20
2018-08-16T04:25:18.490Z,91.30
2018-08-16T04:25:51.612Z,91.20
2018-08-16T04:26:24.660Z,91.10
2018-08-16T04:26:57.694Z,91.20
2018-08-16T04:27:30.724Z,91.20
2018-08-16T04:28:03.784Z,91.20
2018-08-16T04:28:36.817Z,91.20
2018-08-16T04:29:09.863Z,91.20
2018-08-16T04:29:42.876Z,91.20
2018-08-16T04:30:15.907Z,91.20
2018-08-16T04:30:48.935Z,91.20
2018-08-16T04:31:22.747Z,91.30
2018-08-16T04:31:55.776Z,91.30
2018-08-16T04:32:28.823Z,91.30
2018-08-16T04:33:01.852Z,91.30
2018-08-16T04:33:35.646Z,91.30
2018-08-16T04:34:09.431Z,91.20
2018-08-16T04:34:43.244Z,91.60
2018-08-16T04:35:16.266Z,91.20
2018-08-16T04:35:49.326Z,91.20
2018-08-16T04:36:22.336Z,91.20
2018-08-16T04:36:55.379Z,91.30
2018-08-16T04:37:28.423Z,91.30
2018-08-16T04:38:01.451Z,91.30
2018-08-16T04:38:34.481Z,91.30
2018-08-16T04:39:07.511Z,91.40
2018-08-16T04:39:40.525Z,91.40
2018-08-16T04:40:13.576Z,91.30
2018-08-16T04:40:47.901Z,91.40
2018-08-16T04:41:20.931Z,91.40
2018-08-16T04:41:53.998Z,91.30
2018-08-16T04:42:27.008Z,91.30
2018-08-16T04:43:00.035Z,91.30
2018-08-16T04:43:33.055Z,91.30
2018-08-16T04:44:06.871Z,91.40
2018-08-16T04:44:39.900Z,91.30
2018-08-16T04:45:12.944Z,91.70
2018-08-16T04:45:45.993Z,91.40
2018-08-16T04:46:19.027Z,91.40
2018-08-16T04:46:52.092Z,91.40
2018-08-16T04:47:25.123Z,91.40
2018-08-16T04:47:58.164Z,91.40
2018-08-16T04:48:32.020Z,91.40
2018-08-16T04:49:05.769Z,91.40
2018-08-16T04:49:38.803Z,91.40
2018-08-16T04:50:11.854Z,91.40
2018-08-16T04:50:44.888Z,91.40
2018-08-16T04:51:17.936Z,91.40
2018-08-16T04:51:50.993Z,91.40
2018-08-16T04:52:24.060Z,91.40
2018-08-16T04:52:57.089Z,91.50
2018-08-16T04:53:30.900Z,91.50
2018-08-16T04:54:03.973Z,91.50
2018-08-16T04:54:37.017Z,91.50
2018-08-16T04:55:10.825Z,91.50
2018-08-16T04:55:44.656Z,91.40
2018-08-16T04:56:17.916Z,91.40
2018-08-16T04:56:50.999Z,91.50
2018-08-16T04:57:24.768Z,91.50
2018-08-16T04:57:58.555Z,91.60
2018-08-16T04:58:31.584Z,91.60
2018-08-16T04:59:04.624Z,91.50
2018-08-16T04:59:38.428Z,91.40
2018-08-16T05:00:11.464Z,91.30
2018-08-16T05:00:45.268Z,91.50
2018-08-16T05:01:19.213Z,91.50
2018-08-16T05:01:52.320Z,91.60
2018-08-16T05:02:26.114Z,91.60
2018-08-16T05:02:59.158Z,91.60
2018-08-16T05:03:32.943Z,91.60
2018-08-16T05:04:05.980Z,91.60
2018-08-16T05:04:39.771Z,91.60
2018-08-16T05:05:13.563Z,91.60
2018-08-16T05:05:46.589Z,91.60
2018-08-16T05:06:19.750Z,91.70
2018-08-16T05:06:52.799Z,91.70
2018-08-16T05:07:25.836Z,91.80
2018-08-16T05:07:58.886Z,91.80
2018-08-16T05:08:31.907Z,91.70
2018-08-16T05:09:04.936Z,91.80
2018-08-16T05:09:37.958Z,91.80
2018-08-16T05:10:10.991Z,91.80
2018-08-16T05:10:44.037Z,91.80
2018-08-16T05:11:17.092Z,91.80
2018-08-16T05:11:50.152Z,91.90
2018-08-16T05:12:23.977Z,92.00
2018-08-16T05:12:57.011Z,91.90
2018-08-16T05:13:30.820Z,92.00
2018-08-16T05:14:03.856Z,91.90
2018-08-16T05:14:36.994Z,92.00
2018-08-16T05:15:10.039Z,92.00
2018-08-16T05:15:43.072Z,92.00
2018-08-16T05:16:16.095Z,92.00
2018-08-16T05:16:49.125Z,92.00
2018-08-16T05:17:22.252Z,92.00
2018-08-16T05:17:55.210Z,92.00
2018-08-16T05:18:29.005Z,92.10
2018-08-16T05:19:02.047Z,92.10
2018-08-16T05:19:35.185Z,92.20
2018-08-16T05:20:08.233Z,92.30
2018-08-16T05:20:41.251Z,92.30
2018-08-16T05:21:14.276Z,92.30
2018-08-16T05:21:47.316Z,92.40
2018-08-16T05:22:20.464Z,92.40
2018-08-16T05:22:53.484Z,92.30
2018-08-16T05:23:26.501Z,92.40
2018-08-16T05:23:59.606Z,92.50
2018-08-16T05:24:33.324Z,92.50
2018-08-16T05:25:07.143Z,92.80
2018-08-16T05:25:40.180Z,92.60
2018-08-16T05:26:13.205Z,92.60
2018-08-16T05:26:46.223Z,92.70
2018-08-16T05:27:19.265Z,92.70
2018-08-16T05:27:52.287Z,92.70
2018-08-16T05:28:25.420Z,92.70
2018-08-16T05:28:58.454Z,92.70
2018-08-16T05:29:32.243Z,92.70
2018-08-16T05:30:05.275Z,92.70
2018-08-16T05:30:38.311Z,92.70
2018-08-16T05:31:12.115Z,92.70
2018-08-16T05:31:45.432Z,92.70
2018-08-16T05:32:18.509Z,92.70
2018-08-16T05:32:51.667Z,92.70
2018-08-16T05:33:24.696Z,92.70
2018-08-16T05:33:58.508Z,92.70
2018-08-16T05:34:31.536Z,92.70
2018-08-16T05:35:04.584Z,92.80
2018-08-16T05:35:37.611Z,92.80
2018-08-16T05:36:11.415Z,92.80
2018-08-16T05:36:44.451Z,92.80
2018-08-16T05:37:17.493Z,92.80
2018-08-16T05:37:50.550Z,92.90
2018-08-16T05:38:23.603Z,92.90
2018-08-16T05:38:57.426Z,92.90
2018-08-16T05:39:30.455Z,92.90
2018-08-16T05:40:03.584Z,92.90
2018-08-16T05:40:36.612Z,92.90
2018-08-16T05:41:10.417Z,93.00
2018-08-16T05:41:43.452Z,93.00
2018-08-16T05:42:16.497Z,93.00
2018-08-16T05:42:50.009Z,92.90
2018-08-16T05:43:23.119Z,92.90
2018-08-16T05:43:56.089Z,92.90
2018-08-16T05:44:29.112Z,92.90
2018-08-16T05:45:02.140Z,92.90
2018-08-16T05:45:35.936Z,93.00
2018-08-16T05:46:09.747Z,92.90
2018-08-16T05:46:42.768Z,92.90
2018-08-16T05:47:15.839Z,92.80
2018-08-16T05:47:48.869Z,92.80
2018-08-16T05:48:21.903Z,92.90
2018-08-16T05:48:54.929Z,92.80
2018-08-16T05:49:27.964Z,92.80
2018-08-16T05:50:01.756Z,92.90
2018-08-16T05:50:34.784Z,92.90
2018-08-16T05:51:07.812Z,92.90
2018-08-16T05:51:41.630Z,92.90
2018-08-16T05:52:14.655Z,92.90
2018-08-16T05:52:47.699Z,92.90
2018-08-16T05:53:20.732Z,92.90
2018-08-16T05:53:53.760Z,92.90
2018-08-16T05:54:26.791Z,92.90
2018-08-16T05:54:59.824Z,92.80
2018-08-16T05:55:32.963Z,92.90
2018-08-16T05:56:05.999Z,92.90
2018-08-16T05:56:39.128Z,92.90
2018-08-16T05:57:12.156Z,92.90
2018-08-16T05:57:45.188Z,92.90
2018-08-16T05:58:18.986Z,92.90
2018-08-16T05:58:52.020Z,92.90
2018-08-16T05:59:25.075Z,92.80
2018-08-16T05:59:58.081Z,92.60
2018-08-16T06:00:31.104Z,92.80
2018-08-16T06:01:04.143Z,92.70
2018-08-16T06:01:37.178Z,92.70
2018-08-16T06:02:10.205Z,92.70
2018-08-16T06:02:43.248Z,92.60
2018-08-16T06:03:16.303Z,92.50
2018-08-16T06:03:50.103Z,92.60
2018-08-16T06:04:23.895Z,92.70
2018-08-16T06:04:56.931Z,92.70
2018-08-16T06:05:29.960Z,92.50
2018-08-16T06:06:02.993Z,92.70
2018-08-16T06:06:36.019Z,92.70
2018-08-16T06:07:09.052Z,92.70
2018-08-16T06:07:42.923Z,92.70
2018-08-16T06:08:15.883Z,92.70
2018-08-16T06:08:48.908Z,92.70
2018-08-16T06:09:21.945Z,92.70
2018-08-16T06:09:54.988Z,92.60
2018-08-16T06:10:28.016Z,92.70
2018-08-16T06:11:01.144Z,92.50
2018-08-16T06:11:34.183Z,92.70
2018-08-16T06:12:07.284Z,92.60
2018-08-16T06:12:40.330Z,92.60
2018-08-16T06:13:14.120Z,92.70
2018-08-16T06:13:47.932Z,92.70
2018-08-16T06:14:20.981Z,92.70
2018-08-16T06:14:54.779Z,92.70
2018-08-16T06:15:27.906Z,92.70
2018-08-16T06:16:02.369Z,92.50
2018-08-16T06:16:35.403Z,92.50
2018-08-16T06:17:08.424Z,92.40
2018-08-16T06:17:41.485Z,92.50
2018-08-16T06:18:15.283Z,92.50
2018-08-16T06:18:48.307Z,92.40
2018-08-16T06:19:21.339Z,92.40
2018-08-16T06:19:54.397Z,92.30
2018-08-16T06:20:28.252Z,92.30
2018-08-16T06:21:01.308Z,92.30
2018-08-16T06:21:34.358Z,92.40
2018-08-16T06:22:07.419Z,92.50
2018-08-16T06:22:41.223Z,92.40
2018-08-16T06:23:14.263Z,92.40
2018-08-16T06:23:47.312Z,92.30
2018-08-16T06:24:20.432Z,92.30
2018-08-16T06:24:53.437Z,92.30
2018-08-16T06:25:26.485Z,92.20
2018-08-16T06:26:00.300Z,92.20
2018-08-16T06:26:33.380Z,92.20
2018-08-16T06:27:06.424Z,92.20
2018-08-16T06:27:40.232Z,92.10
2018-08-16T06:28:13.279Z,92.10
2018-08-16T06:28:46.313Z,92.10
2018-08-16T06:29:19.344Z,92.00
2018-08-16T06:29:52.384Z,92.10
2018-08-16T06:30:25.432Z,92.00
2018-08-16T06:30:58.464Z,92.00
2018-08-16T06:31:31.545Z,91.90
2018-08-16T06:32:04.535Z,91.80
2018-08-16T06:32:37.619Z,91.90
2018-08-16T06:33:10.716Z,91.80
2018-08-16T06:33:43.785Z,91.80
2018-08-16T06:34:16.816Z,91.80
2018-08-16T06:34:50.608Z,91.80
2018-08-16T06:35:24.394Z,91.70
2018-08-16T06:35:58.212Z,91.70
2018-08-16T06:36:31.243Z,91.70
2018-08-16T06:37:04.286Z,91.60
2018-08-16T06:37:37.304Z,91.50
2018-08-16T06:38:11.117Z,91.60
2018-08-16T06:38:44.192Z,91.40
2018-08-16T06:39:17.294Z,91.40
2018-08-16T06:39:50.323Z,91.40
2018-08-16T06:40:24.132Z,91.60
2018-08-16T06:40:57.178Z,91.50
2018-08-16T06:41:29.774Z,91.60
2018-08-16T06:42:02.734Z,91.50
2018-08-16T06:42:36.527Z,91.10
2018-08-16T06:43:10.341Z,91.20
2018-08-16T06:43:43.355Z,91.00
2018-08-16T06:44:16.400Z,90.90
2018-08-16T06:44:49.500Z,90.80
2018-08-16T06:45:22.647Z,91.00
2018-08-16T06:45:55.661Z,91.00
2018-08-16T06:46:28.697Z,90.80
2018-08-16T06:47:01.723Z,90.70
2018-08-16T06:47:34.767Z,90.60
2018-08-16T06:48:07.811Z,90.80
2018-08-16T06:48:40.850Z,90.60
2018-08-16T06:49:13.885Z,90.50
2018-08-16T06:49:46.921Z,90.50
2018-08-16T06:50:20.720Z,90.50
2018-08-16T06:50:53.748Z,90.50
2018-08-16T06:51:26.787Z,90.40
2018-08-16T06:51:59.815Z,91.10
2018-08-16T06:52:32.864Z,91.10
2018-08-16T06:53:05.460Z,90.70
2018-08-16T06:53:37.959Z,90.10
2018-08-16T06:54:10.457Z,90.20
2018-08-16T06:54:42.976Z,90.70
2018-08-16T06:55:15.475Z,90.70
2018-08-16T06:55:48.439Z,91.00
2018-08-16T06:56:21.501Z,90.80
2018-08-16T06:56:54.124Z,90.80
2018-08-16T06:57:27.072Z,90.50
2018-08-16T06:58:00.124Z,89.60
2018-08-16T06:58:33.171Z,89.80
2018-08-16T06:59:06.196Z,90.50
2018-08-16T06:59:39.336Z,90.10
2018-08-16T07:00:12.381Z,90.40
2018-08-16T07:00:46.180Z,90.40
2018-08-16T07:01:18.777Z,90.40
2018-08-16T07:02:43.588Z,90.20
2018-08-16T07:03:16.636Z,90.10
2018-08-16T07:03:49.673Z,90.20
2018-08-16T07:04:22.713Z,90.00
2018-08-16T07:04:56.553Z,89.60
2018-08-16T07:05:29.568Z,89.60
2018-08-16T07:06:02.604Z,88.40
2018-08-16T07:06:35.072Z,89.30
2018-08-16T07:07:07.568Z,89.40
2018-08-16T07:07:40.531Z,88.90